sensor_id;sensor_type;location;lat;lon;timestamp;pressure;altitude;pressure_sealevel;temperature;humidity
50977;BME280;36992;48.200;12.418;2022-09-27T00:00:23;95265.53;;;15.96;51.83
50977;BME280;36992;48.200;12.418;2022-09-27T00:02:50;95254.69;;;15.96;52.09
50977;BME280;36992;48.200;12.418;2022-09-27T00:05:17;95251.53;;;15.94;52.28
50977;BME280;36992;48.200;12.418;2022-09-27T00:07:44;95253.13;;;15.95;52.46
50977;BME280;36992;48.200;12.418;2022-09-27T00:10:12;95250.03;;;15.97;52.33
50977;BME280;36992;48.200;12.418;2022-09-27T00:12:39;95252.31;;;15.95;52.21
50977;BME280;36992;48.200;12.418;2022-09-27T00:15:08;95248.44;;;15.96;52.58
50977;BME280;36992;48.200;12.418;2022-09-27T00:17:35;95247.25;;;15.93;52.84
50977;BME280;36992;48.200;12.418;2022-09-27T00:20:03;95245.69;;;15.92;52.32
50977;BME280;36992;48.200;12.418;2022-09-27T00:22:30;95237.53;;;15.92;52.59
50977;BME280;36992;48.200;12.418;2022-09-27T00:24:56;95237.53;;;15.92;52.50
50977;BME280;36992;48.200;12.418;2022-09-27T00:27:26;95236.81;;;15.95;52.52
50977;BME280;36992;48.200;12.418;2022-09-27T00:29:52;95230.50;;;15.91;52.61
50977;BME280;36992;48.200;12.418;2022-09-27T00:32:19;95217.28;;;15.89;53.04
50977;BME280;36992;48.200;12.418;2022-09-27T00:34:45;95212.66;;;15.90;52.86
50977;BME280;36992;48.200;12.418;2022-09-27T00:37:12;95207.22;;;15.90;52.05
50977;BME280;36992;48.200;12.418;2022-09-27T00:39:39;95210.28;;;15.88;52.01
50977;BME280;36992;48.200;12.418;2022-09-27T00:42:09;95203.34;;;15.91;52.54
50977;BME280;36992;48.200;12.418;2022-09-27T00:45:02;95199.53;;;15.92;52.68
50977;BME280;36992;48.200;12.418;2022-09-27T00:47:33;95193.59;;;15.86;52.40
50977;BME280;36992;48.200;12.418;2022-09-27T00:50:04;95193.16;;;15.84;52.49
50977;BME280;36992;48.200;12.418;2022-09-27T00:52:38;95193.16;;;15.84;52.68
50977;BME280;36992;48.200;12.418;2022-09-27T00:55:10;95181.53;;;15.84;53.21
50977;BME280;36992;48.200;12.418;2022-09-27T00:57:38;95175.25;;;15.80;53.39
50977;BME280;36992;48.200;12.418;2022-09-27T01:00:11;95179.97;;;15.83;53.20
50977;BME280;36992;48.200;12.418;2022-09-27T01:02:40;95178.00;;;15.83;52.85
50977;BME280;36992;48.200;12.418;2022-09-27T01:05:09;95173.75;;;15.82;52.47
50977;BME280;36992;48.200;12.418;2022-09-27T01:07:36;95163.25;;;15.81;52.87
50977;BME280;36992;48.200;12.418;2022-09-27T01:10:04;95159.38;;;15.82;52.69
50977;BME280;36992;48.200;12.418;2022-09-27T01:12:41;95148.94;;;15.84;52.80
50977;BME280;36992;48.200;12.418;2022-09-27T01:15:20;95152.03;;;15.82;52.85
50977;BME280;36992;48.200;12.418;2022-09-27T01:17:56;95153.94;;;15.82;52.90
50977;BME280;36992;48.200;12.418;2022-09-27T01:26:33;95159.00;;;15.83;52.71
50977;BME280;36992;48.200;12.418;2022-09-27T01:29:08;95169.81;;;15.80;52.05
50977;BME280;36992;48.200;12.418;2022-09-27T01:31:41;95156.19;;;15.76;53.01
50977;BME280;36992;48.200;12.418;2022-09-27T01:34:21;95161.97;;;15.74;52.68
50977;BME280;36992;48.200;12.418;2022-09-27T01:36:54;95157.66;;;15.70;52.33
50977;BME280;36992;48.200;12.418;2022-09-27T01:39:31;95162.66;;;15.68;52.95
50977;BME280;36992;48.200;12.418;2022-09-27T01:42:04;95155.59;;;15.63;53.13
50977;BME280;36992;48.200;12.418;2022-09-27T01:44:37;95159.44;;;15.62;52.83
50977;BME280;36992;48.200;12.418;2022-09-27T01:47:11;95167.19;;;15.60;53.14
50977;BME280;36992;48.200;12.418;2022-09-27T01:49:46;95161.69;;;15.56;53.00
50977;BME280;36992;48.200;12.418;2022-09-27T01:52:17;95158.50;;;15.50;53.21
50977;BME280;36992;48.200;12.418;2022-09-27T01:54:49;95166.97;;;15.45;52.98
50977;BME280;36992;48.200;12.418;2022-09-27T01:57:23;95164.59;;;15.44;53.30
50977;BME280;36992;48.200;12.418;2022-09-27T01:59:55;95163.38;;;15.41;52.97
50977;BME280;36992;48.200;12.418;2022-09-27T02:02:27;95159.41;;;15.35;53.61
50977;BME280;36992;48.200;12.418;2022-09-27T02:04:59;95165.19;;;15.33;53.45
50977;BME280;36992;48.200;12.418;2022-09-27T02:07:33;95169.84;;;15.33;53.98
50977;BME280;36992;48.200;12.418;2022-09-27T02:10:06;95160.13;;;15.32;54.31
50977;BME280;36992;48.200;12.418;2022-09-27T02:12:39;95160.91;;;15.32;54.65
50977;BME280;36992;48.200;12.418;2022-09-27T02:15:11;95168.25;;;15.32;54.59
50977;BME280;36992;48.200;12.418;2022-09-27T02:17:43;95152.41;;;15.34;54.55
50977;BME280;36992;48.200;12.418;2022-09-27T02:20:16;95145.84;;;15.35;54.77
50977;BME280;36992;48.200;12.418;2022-09-27T02:22:48;95154.41;;;15.37;54.59
50977;BME280;36992;48.200;12.418;2022-09-27T02:25:19;95159.47;;;15.38;54.67
50977;BME280;36992;48.200;12.418;2022-09-27T02:27:53;95154.44;;;15.41;54.70
50977;BME280;36992;48.200;12.418;2022-09-27T02:30:23;95158.66;;;15.38;55.06
50977;BME280;36992;48.200;12.418;2022-09-27T02:32:51;95152.13;;;15.39;54.98
50977;BME280;36992;48.200;12.418;2022-09-27T02:35:21;95153.69;;;15.40;54.92
50977;BME280;36992;48.200;12.418;2022-09-27T02:37:50;95143.53;;;15.37;55.03
50977;BME280;36992;48.200;12.418;2022-09-27T02:40:16;95143.53;;;15.37;55.06
50977;BME280;36992;48.200;12.418;2022-09-27T02:42:44;95145.09;;;15.38;55.46
50977;BME280;36992;48.200;12.418;2022-09-27T02:45:13;95148.25;;;15.40;54.61
50977;BME280;36992;48.200;12.418;2022-09-27T02:47:52;95155.66;;;15.43;54.45
50977;BME280;36992;48.200;12.418;2022-09-27T02:50:45;95154.50;;;15.44;54.46
50977;BME280;36992;48.200;12.418;2022-09-27T02:53:23;95155.97;;;15.38;54.30
50977;BME280;36992;48.200;12.418;2022-09-27T02:55:58;95155.13;;;15.34;54.62
50977;BME280;36992;48.200;12.418;2022-09-27T02:58:36;95146.56;;;15.32;54.84
50977;BME280;36992;48.200;12.418;2022-09-27T03:01:11;95147.28;;;15.29;54.99
50977;BME280;36992;48.200;12.418;2022-09-27T03:03:45;95149.59;;;15.27;55.11
50977;BME280;36992;48.200;12.418;2022-09-27T03:06:17;95151.84;;;15.24;55.06
50977;BME280;36992;48.200;12.418;2022-09-27T03:08:45;95149.09;;;15.21;55.12
50977;BME280;36992;48.200;12.418;2022-09-27T03:11:12;95145.16;;;15.18;55.32
50977;BME280;36992;48.200;12.418;2022-09-27T03:13:39;95151.72;;;15.17;55.42
50977;BME280;36992;48.200;12.418;2022-09-27T03:16:05;95167.22;;;15.17;55.64
50977;BME280;36992;48.200;12.418;2022-09-27T03:18:32;95162.16;;;15.15;55.76
50977;BME280;36992;48.200;12.418;2022-09-27T03:21:00;95152.88;;;15.16;55.66
50977;BME280;36992;48.200;12.418;2022-09-27T03:23:27;95154.78;;;15.16;55.59
50977;BME280;36992;48.200;12.418;2022-09-27T03:25:54;95156.38;;;15.17;55.80
50977;BME280;36992;48.200;12.418;2022-09-27T03:28:20;95143.59;;;15.17;55.80
50977;BME280;36992;48.200;12.418;2022-09-27T03:30:47;95147.09;;;15.18;55.77
50977;BME280;36992;48.200;12.418;2022-09-27T03:33:14;95137.03;;;15.18;55.98
50977;BME280;36992;48.200;12.418;2022-09-27T03:35:40;95135.47;;;15.17;55.66
50977;BME280;36992;48.200;12.418;2022-09-27T03:38:09;95143.66;;;15.21;55.31
50977;BME280;36992;48.200;12.418;2022-09-27T03:40:36;95150.16;;;15.16;55.93
50977;BME280;36992;48.200;12.418;2022-09-27T03:43:03;95150.16;;;15.16;55.93
50977;BME280;36992;48.200;12.418;2022-09-27T03:45:29;95147.81;;;15.15;55.55
50977;BME280;36992;48.200;12.418;2022-09-27T03:47:56;95145.09;;;15.15;55.60
50977;BME280;36992;48.200;12.418;2022-09-27T03:50:22;95138.53;;;15.16;55.63
50977;BME280;36992;48.200;12.418;2022-09-27T03:52:49;95135.03;;;15.15;55.67
50977;BME280;36992;48.200;12.418;2022-09-27T03:55:18;95122.31;;;15.19;55.64
50977;BME280;36992;48.200;12.418;2022-09-27T03:57:45;95109.91;;;15.18;55.63
50977;BME280;36992;48.200;12.418;2022-09-27T04:00:12;95099.06;;;15.18;55.85
50977;BME280;36992;48.200;12.418;2022-09-27T04:02:39;95089.00;;;15.19;55.89
50977;BME280;36992;48.200;12.418;2022-09-27T04:05:06;95082.78;;;15.18;56.07
50977;BME280;36992;48.200;12.418;2022-09-27T04:07:33;95080.06;;;15.18;56.19
50977;BME280;36992;48.200;12.418;2022-09-27T04:09:59;95078.50;;;15.17;55.98
50977;BME280;36992;48.200;12.418;2022-09-27T04:12:27;95083.22;;;15.20;55.79
50977;BME280;36992;48.200;12.418;2022-09-27T04:14:54;95075.78;;;15.17;55.78
50977;BME280;36992;48.200;12.418;2022-09-27T04:17:21;95074.66;;;15.18;55.76
50977;BME280;36992;48.200;12.418;2022-09-27T04:19:49;95070.38;;;15.17;55.79
50977;BME280;36992;48.200;12.418;2022-09-27T04:22:15;95061.44;;;15.17;55.49
50977;BME280;36992;48.200;12.418;2022-09-27T04:24:42;95068.81;;;15.16;55.41
50977;BME280;36992;48.200;12.418;2022-09-27T04:27:10;95057.16;;;15.16;55.35
50977;BME280;36992;48.200;12.418;2022-09-27T04:29:40;95061.81;;;15.15;55.14
50977;BME280;36992;48.200;12.418;2022-09-27T04:32:09;95067.19;;;15.12;55.81
50977;BME280;36992;48.200;12.418;2022-09-27T04:34:36;95078.38;;;15.10;55.46
50977;BME280;36992;48.200;12.418;2022-09-27T04:37:20;95070.59;;;15.08;55.48
50977;BME280;36992;48.200;12.418;2022-09-27T04:39:47;95076.78;;;15.05;55.60
50977;BME280;36992;48.200;12.418;2022-09-27T04:42:14;95056.94;;;15.01;55.82
50977;BME280;36992;48.200;12.418;2022-09-27T04:44:42;95057.72;;;15.02;55.83
50977;BME280;36992;48.200;12.418;2022-09-27T04:47:08;95070.06;;;14.99;55.53
50977;BME280;36992;48.200;12.418;2022-09-27T04:49:35;95069.28;;;14.99;55.72
50977;BME280;36992;48.200;12.418;2022-09-27T04:52:03;95084.41;;;15.00;55.69
50977;BME280;36992;48.200;12.418;2022-09-27T04:54:30;95082.84;;;14.99;55.43
50977;BME280;36992;48.200;12.418;2022-09-27T04:56:56;95090.19;;;14.98;55.61
50977;BME280;36992;48.200;12.418;2022-09-27T04:59:23;95096.41;;;14.99;55.48
50977;BME280;36992;48.200;12.418;2022-09-27T05:01:51;95095.25;;;15.00;55.61
50977;BME280;36992;48.200;12.418;2022-09-27T05:04:18;95095.59;;;14.98;55.84
50977;BME280;36992;48.200;12.418;2022-09-27T05:06:46;95089.41;;;14.97;55.75
50977;BME280;36992;48.200;12.418;2022-09-27T05:09:12;95093.69;;;14.99;55.72
50977;BME280;36992;48.200;12.418;2022-09-27T05:11:39;95092.53;;;15.00;55.97
50977;BME280;36992;48.200;12.418;2022-09-27T05:14:05;95094.09;;;15.01;55.85
50977;BME280;36992;48.200;12.418;2022-09-27T05:16:33;95095.69;;;15.02;55.83
50977;BME280;36992;48.200;12.418;2022-09-27T05:19:01;95095.75;;;15.05;55.78
50977;BME280;36992;48.200;12.418;2022-09-27T05:21:28;95111.56;;;15.03;55.89
50977;BME280;36992;48.200;12.418;2022-09-27T05:23:55;95120.50;;;15.04;55.62
50977;BME280;36992;48.200;12.418;2022-09-27T05:26:22;95099.53;;;15.01;55.84
50977;BME280;36992;48.200;12.418;2022-09-27T05:28:48;95101.81;;;14.99;55.78
50977;BME280;36992;48.200;12.418;2022-09-27T05:31:15;95105.69;;;14.97;56.20
50977;BME280;36992;48.200;12.418;2022-09-27T05:33:41;95113.41;;;14.95;56.10
50977;BME280;36992;48.200;12.418;2022-09-27T05:36:09;95104.13;;;14.96;56.25
50977;BME280;36992;48.200;12.418;2022-09-27T05:38:36;95109.53;;;14.96;56.00
50977;BME280;36992;48.200;12.418;2022-09-27T05:41:04;95102.56;;;14.95;55.92
50977;BME280;36992;48.200;12.418;2022-09-27T05:43:30;95107.97;;;14.95;56.10
50977;BME280;36992;48.200;12.418;2022-09-27T05:45:57;95104.47;;;14.95;55.80
50977;BME280;36992;48.200;12.418;2022-09-27T05:48:25;95113.41;;;14.95;55.95
50977;BME280;36992;48.200;12.418;2022-09-27T05:50:54;95117.22;;;14.94;56.12
50977;BME280;36992;48.200;12.418;2022-09-27T05:53:22;95113.41;;;14.95;55.78
50977;BME280;36992;48.200;12.418;2022-09-27T05:55:49;95119.53;;;14.92;55.95
50977;BME280;36992;48.200;12.418;2022-09-27T05:58:15;95115.59;;;14.90;55.84
50977;BME280;36992;48.200;12.418;2022-09-27T06:00:42;95107.81;;;14.88;55.88
50977;BME280;36992;48.200;12.418;2022-09-27T06:03:10;95114.84;;;14.89;55.77
50977;BME280;36992;48.200;12.418;2022-09-27T06:05:38;95113.63;;;14.87;56.06
50977;BME280;36992;48.200;12.418;2022-09-27T06:08:07;95117.09;;;14.87;56.05
50977;BME280;36992;48.200;12.418;2022-09-27T06:10:36;95112.41;;;14.84;55.88
50977;BME280;36992;48.200;12.418;2022-09-27T06:13:04;95122.81;;;14.82;56.24
50977;BME280;36992;48.200;12.418;2022-09-27T06:15:31;95128.16;;;14.78;56.54
50977;BME280;36992;48.200;12.418;2022-09-27T06:18:02;95123.19;;;14.80;55.85
50977;BME280;36992;48.200;12.418;2022-09-27T06:20:29;95137.78;;;14.76;56.06
50977;BME280;36992;48.200;12.418;2022-09-27T06:23:02;95140.50;;;14.76;55.67
50977;BME280;36992;48.200;12.418;2022-09-27T06:25:29;95134.56;;;14.70;56.63
50977;BME280;36992;48.200;12.418;2022-09-27T06:27:57;95131.44;;;14.68;56.33
50977;BME280;36992;48.200;12.418;2022-09-27T06:30:23;95142.56;;;14.63;56.52
50977;BME280;36992;48.200;12.418;2022-09-27T06:32:54;95151.03;;;14.61;56.55
50977;BME280;36992;48.200;12.418;2022-09-27T06:35:21;95158.25;;;14.53;56.96
50977;BME280;36992;48.200;12.418;2022-09-27T06:37:49;95155.09;;;14.51;56.90
50977;BME280;36992;48.200;12.418;2022-09-27T06:40:15;95157.03;;;14.51;56.80
50977;BME280;36992;48.200;12.418;2022-09-27T06:42:42;95160.47;;;14.48;56.83
50977;BME280;36992;48.200;12.418;2022-09-27T06:45:11;95152.75;;;14.50;57.03
50977;BME280;36992;48.200;12.418;2022-09-27T06:47:37;95158.53;;;14.48;57.30
50977;BME280;36992;48.200;12.418;2022-09-27T06:50:05;95166.28;;;14.50;57.17
50977;BME280;36992;48.200;12.418;2022-09-27T06:52:32;95166.75;;;14.52;57.48
50977;BME280;36992;48.200;12.418;2022-09-27T06:54:59;95173.72;;;14.53;57.65
50977;BME280;36992;48.200;12.418;2022-09-27T06:57:25;95182.19;;;14.51;57.39
50977;BME280;36992;48.200;12.418;2022-09-27T07:00:12;95166.03;;;14.55;57.05
50977;BME280;36992;48.200;12.418;2022-09-27T07:02:51;95165.16;;;14.51;57.13
50977;BME280;36992;48.200;12.418;2022-09-27T07:05:18;95176.72;;;14.48;57.46
50977;BME280;36992;48.200;12.418;2022-09-27T07:07:45;95182.47;;;14.46;57.72
50977;BME280;36992;48.200;12.418;2022-09-27T07:10:13;95173.59;;;14.46;57.67
50977;BME280;36992;48.200;12.418;2022-09-27T07:12:41;95185.13;;;14.42;57.51
50977;BME280;36992;48.200;12.418;2022-09-27T07:15:09;95181.97;;;14.40;57.54
50977;BME280;36992;48.200;12.418;2022-09-27T07:17:37;95185.91;;;14.43;57.67
50977;BME280;36992;48.200;12.418;2022-09-27T07:20:04;95186.59;;;14.40;57.72
50977;BME280;36992;48.200;12.418;2022-09-27T07:22:31;95192.81;;;14.40;57.47
50977;BME280;36992;48.200;12.418;2022-09-27T07:24:57;95188.97;;;14.41;57.73
50977;BME280;36992;48.200;12.418;2022-09-27T07:27:24;95192.03;;;14.40;57.76
50977;BME280;36992;48.200;12.418;2022-09-27T07:29:50;95194.72;;;14.40;57.71
50977;BME280;36992;48.200;12.418;2022-09-27T07:32:17;95201.72;;;14.41;57.89
50977;BME280;36992;48.200;12.418;2022-09-27T07:34:45;95195.94;;;14.42;57.86
50977;BME280;36992;48.200;12.418;2022-09-27T07:37:11;95199.38;;;14.39;57.98
50977;BME280;36992;48.200;12.418;2022-09-27T07:39:38;95199.00;;;14.41;57.19
50977;BME280;36992;48.200;12.418;2022-09-27T07:42:04;95198.25;;;14.40;57.47
50977;BME280;36992;48.200;12.418;2022-09-27T07:44:31;95196.28;;;14.41;57.26
50977;BME280;36992;48.200;12.418;2022-09-27T07:46:57;95195.94;;;14.42;57.14
50977;BME280;36992;48.200;12.418;2022-09-27T07:49:24;95204.50;;;14.44;56.24
50977;BME280;36992;48.200;12.418;2022-09-27T07:51:52;95219.25;;;14.47;56.30
50977;BME280;36992;48.200;12.418;2022-09-27T07:54:19;95216.13;;;14.45;56.02
50977;BME280;36992;48.200;12.418;2022-09-27T07:56:45;95214.63;;;14.48;55.84
50977;BME280;36992;48.200;12.418;2022-09-27T07:59:12;95210.78;;;14.49;55.29
50977;BME280;36992;48.200;12.418;2022-09-27T08:01:38;95215.34;;;14.44;54.37
50977;BME280;36992;48.200;12.418;2022-09-27T08:04:05;95220.06;;;14.48;54.68
50977;BME280;36992;48.200;12.418;2022-09-27T08:06:31;95216.56;;;14.47;55.04
50977;BME280;36992;48.200;12.418;2022-09-27T08:08:59;95221.56;;;14.45;54.30
50977;BME280;36992;48.200;12.418;2022-09-27T08:11:27;95235.44;;;14.43;54.76
50977;BME280;36992;48.200;12.418;2022-09-27T08:13:53;95228.88;;;14.44;54.86
50977;BME280;36992;48.200;12.418;2022-09-27T08:16:21;95237.00;;;14.44;55.08
50977;BME280;36992;48.200;12.418;2022-09-27T08:18:48;95233.09;;;14.42;54.09
50977;BME280;36992;48.200;12.418;2022-09-27T08:21:14;95237.72;;;14.41;54.10
50977;BME280;36992;48.200;12.418;2022-09-27T08:23:41;95238.53;;;14.42;54.38
50977;BME280;36992;48.200;12.418;2022-09-27T08:26:09;95236.25;;;14.44;54.95
50977;BME280;36992;48.200;12.418;2022-09-27T08:28:35;95238.53;;;14.42;54.37
50977;BME280;36992;48.200;12.418;2022-09-27T08:31:02;95236.59;;;14.42;55.23
50977;BME280;36992;48.200;12.418;2022-09-27T08:33:29;95233.88;;;14.42;55.37
50977;BME280;36992;48.200;12.418;2022-09-27T08:35:55;95241.66;;;14.44;55.09
50977;BME280;36992;48.200;12.418;2022-09-27T08:38:21;95243.22;;;14.45;54.76
50977;BME280;36992;48.200;12.418;2022-09-27T08:40:52;95236.75;;;14.50;54.47
50977;BME280;36992;48.200;12.418;2022-09-27T08:43:31;95229.06;;;14.52;54.34
50977;BME280;36992;48.200;12.418;2022-09-27T08:46:17;95230.34;;;14.58;54.37
50977;BME280;36992;48.200;12.418;2022-09-27T08:48:52;95229.56;;;14.57;54.41
50977;BME280;36992;48.200;12.418;2022-09-27T08:51:26;95228.88;;;14.61;54.69
50977;BME280;36992;48.200;12.418;2022-09-27T08:53:58;95231.19;;;14.62;54.09
50977;BME280;36992;48.200;12.418;2022-09-27T08:56:26;95230.44;;;14.62;54.07
50977;BME280;36992;48.200;12.418;2022-09-27T08:58:59;95239.06;;;14.67;54.17
50977;BME280;36992;48.200;12.418;2022-09-27T09:01:28;95245.19;;;14.64;53.60
50977;BME280;36992;48.200;12.418;2022-09-27T09:03:56;95263.88;;;14.69;54.55
50977;BME280;36992;48.200;12.418;2022-09-27T09:06:27;95304.09;;;14.67;54.89
50977;BME280;36992;48.200;12.418;2022-09-27T09:09:02;95320.34;;;14.67;52.12
50977;BME280;36992;48.200;12.418;2022-09-27T09:11:42;95317.91;;;14.62;52.38
50977;BME280;36992;48.200;12.418;2022-09-27T09:14:32;95312.75;;;14.57;52.35
50977;BME280;36992;48.200;12.418;2022-09-27T09:17:09;95301.88;;;14.37;52.42
50977;BME280;36992;48.200;12.418;2022-09-27T09:19:53;95299.25;;;14.25;51.88
50977;BME280;36992;48.200;12.418;2022-09-27T09:22:36;95291.31;;;14.16;53.55
50977;BME280;36992;48.200;12.418;2022-09-27T09:25:21;95282.25;;;14.08;53.17
50977;BME280;36992;48.200;12.418;2022-09-27T09:27:55;95284.75;;;14.01;53.37
50977;BME280;36992;48.200;12.418;2022-09-27T09:30:28;95288.59;;;14.00;53.06
50977;BME280;36992;48.200;12.418;2022-09-27T09:33:11;95278.56;;;14.00;54.14
50977;BME280;36992;48.200;12.418;2022-09-27T09:35:41;95269.91;;;13.95;54.29
50977;BME280;36992;48.200;12.418;2022-09-27T09:38:14;95269.66;;;14.00;55.08
50977;BME280;36992;48.200;12.418;2022-09-27T09:40:46;95274.72;;;14.01;54.56
50977;BME280;36992;48.200;12.418;2022-09-27T09:43:18;95270.97;;;14.06;55.36
50977;BME280;36992;48.200;12.418;2022-09-27T09:45:49;95276.28;;;14.02;53.58
50977;BME280;36992;48.200;12.418;2022-09-27T09:48:24;95277.25;;;14.10;54.34
50977;BME280;36992;48.200;12.418;2022-09-27T09:50:57;95276.47;;;14.10;52.82
50977;BME280;36992;48.200;12.418;2022-09-27T09:53:33;95283.19;;;14.16;54.52
50977;BME280;36992;48.200;12.418;2022-09-27T09:56:04;95271.13;;;14.13;54.38
50977;BME280;36992;48.200;12.418;2022-09-27T09:58:35;95279.00;;;14.19;54.23
50977;BME280;36992;48.200;12.418;2022-09-27T10:01:13;95281.53;;;14.27;54.56
50977;BME280;36992;48.200;12.418;2022-09-27T10:03:42;95283.88;;;14.29;53.62
50977;BME280;36992;48.200;12.418;2022-09-27T10:06:09;95277.31;;;14.30;52.50
50977;BME280;36992;48.200;12.418;2022-09-27T10:08:37;95284.84;;;14.37;53.81
50977;BME280;36992;48.200;12.418;2022-09-27T10:11:05;95284.13;;;14.40;53.59
50977;BME280;36992;48.200;12.418;2022-09-27T10:13:34;95279.59;;;14.44;52.31
50977;BME280;36992;48.200;12.418;2022-09-27T10:16:04;95286.66;;;14.49;51.64
50977;BME280;36992;48.200;12.418;2022-09-27T10:18:34;95275.03;;;14.48;52.32
50977;BME280;36992;48.200;12.418;2022-09-27T10:21:05;95295.19;;;14.51;50.55
50977;BME280;36992;48.200;12.418;2022-09-27T10:23:33;95303.25;;;14.47;49.41
50977;BME280;36992;48.200;12.418;2022-09-27T10:26:03;95305.63;;;14.49;49.94
50977;BME280;36992;48.200;12.418;2022-09-27T10:28:32;95291.72;;;14.50;49.91
50977;BME280;36992;48.200;12.418;2022-09-27T10:31:03;95294.34;;;14.47;49.88
50977;BME280;36992;48.200;12.418;2022-09-27T10:33:31;95300.47;;;14.43;49.36
50977;BME280;36992;48.200;12.418;2022-09-27T10:35:59;95299.78;;;14.47;49.73
50977;BME280;36992;48.200;12.418;2022-09-27T10:38:29;95301.69;;;14.46;50.47
50977;BME280;36992;48.200;12.418;2022-09-27T10:40:57;95300.91;;;14.46;50.04
50977;BME280;36992;48.200;12.418;2022-09-27T10:43:30;95299.78;;;14.47;49.22
50977;BME280;36992;48.200;12.418;2022-09-27T10:46:04;95319.88;;;14.46;48.59
50977;BME280;36992;48.200;12.418;2022-09-27T10:48:31;95310.69;;;14.50;49.20
50977;BME280;36992;48.200;12.418;2022-09-27T10:51:01;95313.06;;;14.52;49.26
50977;BME280;36992;48.200;12.418;2022-09-27T10:53:29;95313.41;;;14.50;49.72
50977;BME280;36992;48.200;12.418;2022-09-27T10:55:57;95316.09;;;14.50;49.12
50977;BME280;36992;48.200;12.418;2022-09-27T10:58:27;95325.00;;;14.51;50.16
50977;BME280;36992;48.200;12.418;2022-09-27T11:00:56;95328.16;;;14.53;50.38
50977;BME280;36992;48.200;12.418;2022-09-27T11:03:26;95324.22;;;14.50;51.42
50977;BME280;36992;48.200;12.418;2022-09-27T11:05:53;95329.22;;;14.48;51.78
50977;BME280;36992;48.200;12.418;2022-09-27T11:08:28;95328.84;;;14.50;51.85
50977;BME280;36992;48.200;12.418;2022-09-27T11:11:01;95326.16;;;14.50;51.58
50977;BME280;36992;48.200;12.418;2022-09-27T11:13:29;95327.56;;;14.43;52.34
50977;BME280;36992;48.200;12.418;2022-09-27T11:16:20;95331.56;;;14.50;52.40
50977;BME280;36992;48.200;12.418;2022-09-27T11:19:00;95320.66;;;14.46;53.43
50977;BME280;36992;48.200;12.418;2022-09-27T11:21:37;95334.53;;;14.44;53.52
50977;BME280;36992;48.200;12.418;2022-09-27T11:24:22;95335.34;;;14.45;52.25
50977;BME280;36992;48.200;12.418;2022-09-27T11:26:59;95322.22;;;14.47;52.71
50977;BME280;36992;48.200;12.418;2022-09-27T11:29:36;95330.78;;;14.49;52.56
50977;BME280;36992;48.200;12.418;2022-09-27T11:32:18;95330.41;;;14.51;51.33
50977;BME280;36992;48.200;12.418;2022-09-27T11:35:14;95333.13;;;14.51;51.75
50977;BME280;36992;48.200;12.418;2022-09-27T11:37:51;95331.56;;;14.50;52.73
50977;BME280;36992;48.200;12.418;2022-09-27T11:40:31;95334.00;;;14.55;52.87
50977;BME280;36992;48.200;12.418;2022-09-27T11:43:22;95323.25;;;14.59;52.71
50977;BME280;36992;48.200;12.418;2022-09-27T11:46:00;95322.56;;;14.62;52.64
50977;BME280;36992;48.200;12.418;2022-09-27T11:48:44;95334.88;;;14.59;53.08
50977;BME280;36992;48.200;12.418;2022-09-27T11:51:32;95336.47;;;14.60;53.35
50977;BME280;36992;48.200;12.418;2022-09-27T11:54:15;95330.25;;;14.60;54.10
50977;BME280;36992;48.200;12.418;2022-09-27T11:56:54;95329.13;;;14.61;53.52
50977;BME280;36992;48.200;12.418;2022-09-27T11:59:40;95325.69;;;14.64;53.55
50977;BME280;36992;48.200;12.418;2022-09-27T12:02:22;95314.13;;;14.67;53.69
50977;BME280;36992;48.200;12.418;2022-09-27T12:05:07;95310.00;;;14.73;53.94
50977;BME280;36992;48.200;12.418;2022-09-27T12:07:45;95315.56;;;14.77;52.81
50977;BME280;36992;48.200;12.418;2022-09-27T12:10:18;95322.19;;;14.79;53.54
50977;BME280;36992;48.200;12.418;2022-09-27T12:12:50;95320.88;;;14.89;52.65
50977;BME280;36992;48.200;12.418;2022-09-27T12:15:19;95327.59;;;14.95;51.96
50977;BME280;36992;48.200;12.418;2022-09-27T12:17:49;95322.16;;;14.95;51.71
50977;BME280;36992;48.200;12.418;2022-09-27T12:20:22;95335.81;;;14.99;52.48
50977;BME280;36992;48.200;12.418;2022-09-27T12:22:54;95328.44;;;15.00;50.80
50977;BME280;36992;48.200;12.418;2022-09-27T12:25:25;95337.63;;;14.95;49.94
50977;BME280;36992;48.200;12.418;2022-09-27T12:28:00;95344.91;;;14.91;50.79
50977;BME280;36992;48.200;12.418;2022-09-27T12:30:30;95357.94;;;14.85;50.51
50977;BME280;36992;48.200;12.418;2022-09-27T12:33:04;95351.94;;;14.76;50.27
50977;BME280;36992;48.200;12.418;2022-09-27T12:35:38;95343.19;;;14.66;50.30
50977;BME280;36992;48.200;12.418;2022-09-27T12:38:11;95339.16;;;14.60;50.96
50977;BME280;36992;48.200;12.418;2022-09-27T12:40:42;95339.97;;;14.44;49.81
50977;BME280;36992;48.200;12.418;2022-09-27T12:43:17;95333.53;;;14.33;50.62
50977;BME280;36992;48.200;12.418;2022-09-27T12:45:50;95328.63;;;14.23;51.12
50977;BME280;36992;48.200;12.418;2022-09-27T12:48:26;95336.56;;;14.15;51.61
50977;BME280;36992;48.200;12.418;2022-09-27T12:51:00;95345.38;;;14.12;51.98
50977;BME280;36992;48.200;12.418;2022-09-27T12:53:41;95338.66;;;14.06;51.94
50977;BME280;36992;48.200;12.418;2022-09-27T12:56:32;95334.38;;;14.05;51.67
50977;BME280;36992;48.200;12.418;2022-09-27T12:59:08;95345.81;;;13.98;52.73
50977;BME280;36992;48.200;12.418;2022-09-27T13:01:53;95341.09;;;13.95;52.68
50977;BME280;36992;48.200;12.418;2022-09-27T13:04:45;95353.41;;;13.93;52.27
50977;BME280;36992;48.200;12.418;2022-09-27T13:07:25;95378.72;;;13.84;52.79
50977;BME280;36992;48.200;12.418;2022-09-27T13:10:17;95383.94;;;13.77;52.57
50977;BME280;36992;48.200;12.418;2022-09-27T13:12:50;95380.81;;;13.62;53.61
50977;BME280;36992;48.200;12.418;2022-09-27T13:15:25;95381.75;;;13.54;53.57